Time;durP1;ratioP1;P1;durP2;ratioP2;P2;SDS_P1;SDS_P2;PMS_P1;PMS_P2;Temp;Humidity;BMP_temperature;BMP_pressure;BME280_temperature;BME280_humidity;BME280_pressure;Samples;Min_cycle;Max_cycle;Signal;HPM_P1;HPM_P2
2023/08/05 00:01:16;;;;;;;17.63;6.30;;;;;;;21.13;65.07;98993.31;5080263;28;20469;-79
2023/08/05 00:04:00;;;;;;;13.55;5.35;;;;;;;21.20;65.09;98982.41;5074502;28;20043;-79
2023/08/05 00:06:44;;;;;;;13.40;6.07;;;;;;;21.04;65.50;98979.72;5082689;28;20051;-80
2023/08/05 00:09:28;;;;;;;13.48;5.72;;;;;;;21.68;64.25;98971.44;5079992;28;20089;-79
2023/08/05 00:12:12;;;;;;;13.23;5.28;;;;;;;21.55;64.70;98968.22;5079667;28;20114;-79
2023/08/05 00:14:56;;;;;;;14.48;5.35;;;;;;;21.37;65.05;98960.75;5079754;28;20094;-80
2023/08/05 00:17:40;;;;;;;14.90;5.90;;;;;;;21.45;64.46;98946.88;5078636;28;20042;-80
2023/08/05 00:20:24;;;;;;;17.52;5.90;;;;;;;21.23;64.87;98953.31;5080184;28;20035;-79
2023/08/05 00:23:08;;;;;;;12.55;6.15;;;;;;;20.93;65.63;98957.56;5080873;28;20089;-80
2023/08/05 00:25:52;;;;;;;18.33;6.03;;;;;;;21.16;65.17;98952.75;5079416;28;20567;-80
2023/08/05 00:28:36;;;;;;;12.93;6.57;;;;;;;21.30;64.28;98946.91;5078645;28;20089;-80
2023/08/05 00:31:20;;;;;;;18.77;5.70;;;;;;;21.37;64.48;98942.06;5081221;28;20042;-80
2023/08/05 00:34:04;;;;;;;13.55;5.97;;;;;;;21.50;64.08;98938.88;5077007;28;20066;-81
2023/08/05 00:36:48;;;;;;;12.75;5.72;;;;;;;21.44;64.58;98934.59;5072870;28;20093;-80
2023/08/05 00:39:32;;;;;;;13.93;6.18;;;;;;;21.24;64.68;98930.88;5080921;28;20047;-80
2023/08/05 00:42:18;;;;;;;11.40;5.53;;;;;;;21.47;64.22;98923.38;5076808;28;20046;-81
2023/08/05 00:45:03;;;;;;;12.73;5.65;;;;;;;21.33;64.79;98920.47;5078867;28;20060;-81
2023/08/05 00:47:48;;;;;;;15.38;5.90;;;;;;;21.23;65.26;98923.94;5074240;28;20116;-80
2023/08/05 00:50:33;;;;;;;8.52;4.90;;;;;;;21.29;65.50;98913.25;5077693;28;20041;-80
2023/08/05 00:53:17;;;;;;;13.20;6.22;;;;;;;21.33;65.69;98904.44;5079249;28;20036;-80
2023/08/05 00:56:02;;;;;;;9.18;5.45;;;;;;;21.35;65.76;98894.31;5073980;28;20105;-81
2023/08/05 00:58:46;;;;;;;13.10;6.07;;;;;;;21.33;66.00;98895.63;5076436;28;20394;-80
2023/08/05 01:01:31;;;;;;;12.23;6.20;;;;;;;21.30;65.88;98878.28;5077775;28;20120;-80
2023/08/05 01:04:14;;;;;;;13.35;5.40;;;;;;;21.26;66.29;98880.69;5074787;28;20048;-81
2023/08/05 01:06:59;;;;;;;10.27;6.22;;;;;;;21.22;66.34;98879.63;5073979;28;20055;-81
2023/08/05 01:09:43;;;;;;;10.07;5.75;;;;;;;21.17;66.67;98871.63;5080648;28;20043;-80
2023/08/05 01:12:27;;;;;;;15.00;6.28;;;;;;;21.22;66.70;98874.31;5077934;28;20125;-81
2023/08/05 01:15:11;;;;;;;;;;;;;;;21.20;66.72;98863.06;5077147;28;20453;-81
2023/08/05 01:17:57;;;;;;;14.70;6.25;;;;;;;21.22;66.88;98858.28;5077607;28;19942;-80
2023/08/05 01:20:50;;;;;;;14.05;6.38;;;;;;;21.23;66.56;98854.56;5079472;28;20109;-79
2023/08/05 01:24:06;;;;;;;10.77;6.47;;;;;;;21.22;66.57;98852.94;5079896;28;20374;-79
2023/08/05 01:26:51;;;;;;;14.07;5.93;;;;;;;21.15;66.87;98832.94;5063633;28;20127;-79
2023/08/05 01:29:35;;;;;;;12.40;6.55;;;;;;;21.14;67.43;98832.13;5082828;28;20104;-79
2023/08/05 01:32:20;;;;;;;10.68;6.15;;;;;;;21.17;67.49;98820.13;5068761;28;20043;-79
2023/08/05 01:35:06;;;;;;;10.90;6.22;;;;;;;21.10;67.49;98807.06;5079256;28;20133;-80
2023/08/05 01:37:50;;;;;;;12.50;6.00;;;;;;;21.21;67.01;98813.97;5084673;28;20124;-78
2023/08/05 01:40:34;;;;;;;11.35;6.32;;;;;;;21.38;66.78;98808.31;5077019;28;20093;-79
2023/08/05 01:43:18;;;;;;;11.27;6.10;;;;;;;21.31;66.98;98815.03;5080021;28;20071;-79
2023/08/05 01:46:02;;;;;;;13.43;7.15;;;;;;;21.38;66.47;98807.50;5084292;28;20064;-79
2023/08/05 01:48:46;;;;;;;13.85;6.32;;;;;;;21.34;66.83;98809.94;5085216;28;20092;-79
2023/08/05 01:51:30;;;;;;;12.02;6.43;;;;;;;21.39;66.49;98791.22;5079319;28;20100;-79
2023/08/05 01:54:16;;;;;;;15.77;7.18;;;;;;;21.40;66.40;98782.16;5076956;28;20098;-79
2023/08/05 01:57:00;;;;;;;16.33;6.78;;;;;;;21.35;65.83;98786.69;5081266;28;20083;-78
2023/08/05 01:59:44;;;;;;;12.07;6.53;;;;;;;21.41;66.48;98785.59;5079857;28;20043;-78
2023/08/05 02:02:27;;;;;;;10.65;6.22;;;;;;;21.54;66.07;98782.34;5080539;28;20471;-80
2023/08/05 02:05:11;;;;;;;16.38;6.47;;;;;;;21.58;66.42;98779.13;5080250;28;20043;-79
2023/08/05 02:07:55;;;;;;;12.35;6.68;;;;;;;21.56;66.15;98782.09;5085240;28;20193;-82
2023/08/05 02:10:40;;;;;;;16.10;7.18;;;;;;;21.55;66.34;98783.97;5082544;28;20042;-79
2023/08/05 02:13:25;;;;;;;12.95;6.72;;;;;;;21.43;66.46;98778.16;5080526;28;20051;-78
2023/08/05 02:16:09;;;;;;;13.85;6.55;;;;;;;21.56;66.49;98774.09;5079688;28;20555;-79
2023/08/05 02:18:53;;;;;;;13.45;7.10;;;;;;;21.53;66.39;98767.41;5079977;28;20047;-78
2023/08/05 02:21:37;;;;;;;12.32;7.13;;;;;;;21.55;66.35;98764.47;5077721;28;20036;-79
2023/08/05 02:24:21;;;;;;;15.07;6.70;;;;;;;21.47;66.46;98747.16;5079591;28;20088;-79
2023/08/05 02:27:05;;;;;;;;;;;;;;;21.47;66.71;98741.81;5084109;28;20410;-79
2023/08/05 02:29:48;;;;;;;10.90;6.75;;;;;;;21.43;67.02;98737.28;5082395;28;20376;-78
2023/08/05 02:32:32;;;;;;;13.45;6.25;;;;;;;21.63;66.78;98739.06;5081168;28;20090;-79
2023/08/05 02:35:16;;;;;;;12.85;6.43;;;;;;;21.34;67.15;98734.38;5076841;28;20040;-79
2023/08/05 02:38:00;;;;;;;12.57;6.65;;;;;;;21.22;67.97;98727.50;5079294;28;20052;-78
2023/08/05 02:40:44;;;;;;;14.68;7.30;;;;;;;21.33;67.29;98719.44;5080902;28;20093;-78
2023/08/05 02:43:28;;;;;;;14.07;6.88;;;;;;;21.37;67.50;98715.16;5076686;28;20048;-79
2023/08/05 02:46:12;;;;;;;13.65;7.50;;;;;;;21.43;67.43;98708.72;5080191;28;20070;-78
2023/08/05 02:48:56;;;;;;;12.43;7.43;;;;;;;21.43;67.34;98689.22;5079260;28;20504;-79
2023/08/05 02:51:40;;;;;;;17.98;7.85;;;;;;;21.53;67.13;98692.63;5079227;28;20043;-79
2023/08/05 02:54:24;;;;;;;18.25;8.73;;;;;;;21.35;67.50;98693.28;5080715;28;20100;-79
2023/08/05 02:57:08;;;;;;;16.20;8.52;;;;;;;21.47;67.34;98692.94;5079081;28;20047;-78
2023/08/05 02:59:52;;;;;;;15.35;8.20;;;;;;;21.43;67.26;98699.91;5077862;28;20051;-79
2023/08/05 03:02:36;;;;;;;12.82;8.07;;;;;;;21.42;67.07;98701.78;5083538;28;20054;-80
2023/08/05 03:05:20;;;;;;;15.63;9.00;;;;;;;21.48;67.21;98689.19;5081165;28;20111;-80
2023/08/05 03:08:04;;;;;;;19.88;8.48;;;;;;;21.58;66.75;98694.50;5077762;28;20119;-80
2023/08/05 03:10:58;;;;;;;18.10;8.07;;;;;;;21.51;67.25;98681.44;5080036;28;20115;-80
2023/08/05 03:13:42;;;;;;;;;;;;;;;;;;5078849;28;20113;-80
2023/08/05 03:16:26;;;;;;;13.68;8.23;;;;;;;21.38;67.33;98669.50;5075238;28;19919;-79
2023/08/05 03:19:10;;;;;;;18.20;7.82;;;;;;;21.65;66.83;98660.28;5080320;28;20063;-80
2023/08/05 03:21:54;;;;;;;15.63;7.90;;;;;;;21.67;66.63;98650.13;5080481;28;20113;-80
2023/08/05 03:24:38;;;;;;;17.77;8.10;;;;;;;21.33;67.57;98655.38;5077616;28;20492;-80
2023/08/05 03:27:22;;;;;;;12.77;7.72;;;;;;;21.43;66.67;98639.31;5079774;28;20047;-79
2023/08/05 03:30:06;;;;;;;18.42;7.57;;;;;;;21.37;67.05;98638.53;5074604;28;20559;-80
2023/08/05 03:32:50;;;;;;;11.68;7.05;;;;;;;21.22;67.34;98635.94;5085641;28;20081;-81
2023/08/05 03:35:34;;;;;;;15.93;7.35;;;;;;;20.98;68.15;98623.25;5080253;28;20051;-80
2023/08/05 03:38:18;;;;;;;14.90;6.88;;;;;;;20.90;68.12;98627.28;5078962;28;20042;-80
2023/08/05 03:41:05;;;;;;;15.32;7.38;;;;;;;20.78;69.01;98618.75;5075884;28;20413;-80
2023/08/05 03:43:49;;;;;;;17.52;7.72;;;;;;;20.77;68.97;98612.63;5081086;28;20055;-80
2023/08/05 03:46:33;;;;;;;15.73;6.95;;;;;;;20.73;69.80;98606.22;5076083;28;20130;-80
2023/08/05 03:49:17;;;;;;;15.05;7.72;;;;;;;20.78;69.53;98608.09;5079925;28;20089;-79
2023/08/05 03:52:02;;;;;;;13.27;7.20;;;;;;;20.93;69.32;98602.72;5075817;28;20527;-81
2023/08/05 03:54:46;;;;;;;11.18;6.75;;;;;;;20.86;70.00;98588.91;5078889;28;20509;-80
2023/08/05 03:57:31;;;;;;;13.85;7.15;;;;;;;20.82;70.20;98582.50;5076895;28;20048;-79
2023/08/05 04:00:15;;;;;;;13.40;7.03;;;;;;;20.94;70.16;98582.19;5083249;28;20466;-79
2023/08/05 04:02:59;;;;;;;14.00;7.15;;;;;;;20.94;70.02;98585.66;5079237;28;20544;-80
2023/08/05 04:05:44;;;;;;;15.77;6.70;;;;;;;20.93;70.51;98573.38;5080591;28;20093;-80
2023/08/05 04:08:28;;;;;;;15.13;8.35;;;;;;;21.03;70.10;98569.06;5077033;28;20523;-79
2023/08/05 04:11:11;;;;;;;14.63;8.38;;;;;;;21.11;70.65;98563.94;5077664;28;20043;-80
2023/08/05 04:13:58;;;;;;;14.88;7.55;;;;;;;21.12;70.69;98556.75;5075226;28;20123;-80
2023/08/05 04:16:42;;;;;;;18.05;8.30;;;;;;;21.25;70.06;98550.78;5077493;28;20109;-79
2023/08/05 04:19:26;;;;;;;20.23;8.13;;;;;;;21.39;70.03;98544.81;5082466;28;20122;-80
2023/08/05 04:22:10;;;;;;;15.30;7.82;;;;;;;21.17;70.55;98546.03;5078961;28;20047;-80
2023/08/05 04:24:54;;;;;;;13.50;8.40;;;;;;;21.21;70.61;98541.72;5078690;28;20162;-79
2023/08/05 04:27:38;;;;;;;19.10;8.40;;;;;;;21.25;70.00;98542.78;5073479;28;20398;-78
2023/08/05 04:30:22;;;;;;;16.60;8.38;;;;;;;21.16;70.06;98533.75;5075805;28;20039;-80
2023/08/05 04:33:08;;;;;;;17.90;8.80;;;;;;;21.25;69.95;98521.44;5077050;28;20075;-79
2023/08/05 04:35:52;;;;;;;19.63;9.80;;;;;;;21.27;69.76;98531.81;5077563;28;20051;-79
2023/08/05 04:38:36;;;;;;;17.13;9.27;;;;;;;21.24;69.92;98527.84;5079292;28;20109;-80
2023/08/05 04:41:20;;;;;;;16.33;8.25;;;;;;;21.43;69.96;98521.84;5074915;28;20035;-79
2023/08/05 04:44:05;;;;;;;18.08;8.73;;;;;;;21.16;70.56;98511.63;5078176;28;20047;-81
2023/08/05 04:46:49;;;;;;;16.75;8.73;;;;;;;21.22;70.75;98527.34;5079978;28;20115;-81
2023/08/05 04:49:33;;;;;;;20.73;9.70;;;;;;;21.15;71.79;98521.50;5085149;28;20043;-81
2023/08/05 04:52:17;;;;;;;21.50;9.90;;;;;;;21.20;71.55;98524.13;5080353;28;20121;-83
2023/08/05 04:55:10;;;;;;;21.33;11.13;;;;;;;21.01;73.11;98525.84;5080529;28;20057;-81
2023/08/05 04:57:54;;;;;;;22.20;11.23;;;;;;;20.85;73.63;98515.28;5075480;28;20128;-80
2023/08/05 05:00:39;;;;;;;19.30;9.88;;;;;;;20.77;73.90;98513.16;5079513;28;20554;-81
2023/08/05 05:03:23;;;;;;;19.52;10.02;;;;;;;20.92;73.29;98505.09;5074682;28;20505;-82
2023/08/05 05:06:07;;;;;;;20.77;11.30;;;;;;;20.96;72.99;98508.03;5076426;28;20448;-80
2023/08/05 05:08:51;;;;;;;26.80;11.13;;;;;;;21.00;73.24;98497.56;5073682;28;20047;-80
2023/08/05 05:11:35;;;;;;;21.83;10.70;;;;;;;20.98;73.91;98495.97;5078027;28;20039;-79
2023/08/05 05:14:20;;;;;;;25.55;11.88;;;;;;;20.85;73.78;98496.63;5079799;28;20040;-79
2023/08/05 05:17:04;;;;;;;17.70;10.30;;;;;;;20.76;74.31;98492.88;5079134;28;20048;-80
2023/08/05 05:19:49;;;;;;;21.85;11.75;;;;;;;20.77;74.58;98481.16;5073643;28;20032;-80
2023/08/05 05:22:33;;;;;;;23.90;11.30;;;;;;;20.77;74.99;98473.94;5076620;28;20085;-80
2023/08/05 05:25:17;;;;;;;19.38;10.45;;;;;;;20.72;75.26;98465.19;5077732;28;20046;-80
2023/08/05 05:28:01;;;;;;;23.33;11.18;;;;;;;20.72;75.27;98465.19;5074629;28;20137;-82
2023/08/05 05:30:45;;;;;;;21.20;11.55;;;;;;;20.81;75.39;98460.88;5078234;28;20501;-82
2023/08/05 05:33:29;;;;;;;22.67;11.38;;;;;;;20.82;75.71;98459.81;5078087;28;20098;-81
2023/08/05 05:36:14;;;;;;;24.13;11.57;;;;;;;20.87;75.29;98462.47;5081752;28;20097;-82
2023/08/05 05:38:57;;;;;;;24.45;12.25;;;;;;;20.82;75.55;98449.13;5074638;28;20403;-80
2023/08/05 05:41:41;;;;;;;23.48;11.65;;;;;;;20.87;75.59;98442.97;5078077;28;20039;-80
2023/08/05 05:44:29;;;;;;;25.90;12.88;;;;;;;21.02;75.80;98439.38;5077944;28;20499;-80
2023/08/05 05:47:15;;;;;;;21.38;11.95;;;;;;;21.06;75.60;98443.91;5076794;28;20055;-80
2023/08/05 05:49:59;;;;;;;26.90;12.65;;;;;;;21.05;75.57;98431.63;5079439;28;20087;-80
2023/08/05 05:52:43;;;;;;;25.27;12.27;;;;;;;21.08;75.57;98424.97;5082309;28;20062;-80
2023/08/05 05:55:27;;;;;;;25.17;12.50;;;;;;;21.12;75.38;98420.66;5076389;28;20047;-80
2023/08/05 05:58:13;;;;;;;27.65;12.90;;;;;;;21.01;75.17;98414.59;5076186;28;20489;-81
2023/08/05 06:00:58;;;;;;;24.50;11.80;;;;;;;21.23;75.77;98416.03;5080224;28;20051;-81
2023/08/05 06:03:42;;;;;;;24.13;11.98;;;;;;;21.21;75.68;98413.63;5081330;28;20097;-81
2023/08/05 06:06:26;;;;;;;21.25;11.27;;;;;;;21.32;75.37;98410.88;5076170;28;20090;-81
2023/08/05 06:09:10;;;;;;;25.88;11.45;;;;;;;21.40;75.47;98410.25;5079523;28;20093;-81
2023/08/05 06:11:54;;;;;;;23.35;11.02;;;;;;;21.46;75.57;98403.81;5080864;28;20544;-82
2023/08/05 06:14:38;;;;;;;24.73;11.65;;;;;;;21.42;76.01;98402.78;5078723;28;20517;-81
2023/08/05 06:17:22;;;;;;;22.20;11.82;;;;;;;21.80;74.53;98394.91;5075946;28;20048;-81
2023/08/05 06:20:07;;;;;;;22.50;10.70;;;;;;;21.92;74.39;98399.06;5084572;28;20496;-80
2023/08/05 06:22:51;;;;;;;18.55;10.20;;;;;;;21.89;74.00;98399.66;5080352;28;20075;-80
2023/08/05 06:25:35;;;;;;;15.95;9.43;;;;;;;21.67;74.37;98392.94;5080270;28;20477;-81
2023/08/05 06:28:19;;;;;;;19.35;9.63;;;;;;;21.68;74.25;98394.53;5081773;28;20047;-80
2023/08/05 06:31:03;;;;;;;15.90;9.32;;;;;;;21.74;74.14;98388.03;5081258;28;20043;-80
2023/08/05 06:33:47;;;;;;;16.13;9.18;;;;;;;22.03;73.89;98387.19;5077988;28;20059;-80
2023/08/05 06:36:31;;;;;;;17.92;9.77;;;;;;;21.97;73.48;98375.75;5077861;28;20071;-80
2023/08/05 06:39:15;;;;;;;19.50;9.55;;;;;;;22.30;72.80;98385.75;5080157;28;20047;-80
2023/08/05 06:41:59;;;;;;;15.02;9.05;;;;;;;22.32;72.29;98380.91;5080318;28;20047;-81
2023/08/05 06:44:44;;;;;;;18.63;8.27;;;;;;;22.23;71.86;98374.66;5076855;28;20046;-80
2023/08/05 06:47:31;;;;;;;17.75;8.57;;;;;;;22.26;71.83;98379.41;5074316;28;20040;-81
2023/08/05 06:50:15;;;;;;;15.15;7.78;;;;;;;22.27;72.04;98370.31;5075650;28;20044;-81
2023/08/05 06:52:59;;;;;;;12.15;7.53;;;;;;;22.30;71.50;98371.59;5077219;28;20077;-80
2023/08/05 06:55:43;;;;;;;15.30;7.93;;;;;;;22.32;71.42;98359.53;5079524;28;20104;-82
2023/08/05 06:58:27;;;;;;;14.43;8.20;;;;;;;22.37;71.81;98362.13;5081148;28;20105;-82
2023/08/05 07:01:11;;;;;;;15.15;7.93;;;;;;;22.24;72.21;98360.19;5082421;28;20047;-82
2023/08/05 07:03:55;;;;;;;15.07;8.85;;;;;;;22.13;71.75;98350.72;5083695;28;20043;-81
2023/08/05 07:06:39;;;;;;;16.38;8.75;;;;;;;22.06;72.19;98351.06;5078006;28;20063;-81
2023/08/05 07:09:23;;;;;;;20.80;10.10;;;;;;;22.02;72.27;98355.41;5080323;28;20469;-81
2023/08/05 07:12:07;;;;;;;17.15;9.25;;;;;;;21.92;72.13;98343.78;5077206;28;20447;-81
2023/08/05 07:14:51;;;;;;;19.88;10.05;;;;;;;21.99;72.80;98338.06;5083936;28;20125;-82
2023/08/05 07:17:35;;;;;;;20.05;10.00;;;;;;;22.15;72.44;98324.50;5078812;28;20105;-83
2023/08/05 07:20:19;;;;;;;18.23;9.60;;;;;;;22.25;72.62;98322.47;5083400;28;20089;-84
2023/08/05 07:23:03;;;;;;;21.35;9.85;;;;;;;22.50;72.48;98322.41;5083840;28;20067;-82
2023/08/05 07:25:48;;;;;;;21.33;10.98;;;;;;;22.48;72.24;98314.66;5078903;28;20059;-84
2023/08/05 07:28:32;;;;;;;23.35;11.15;;;;;;;22.98;71.12;98313.34;5081242;28;20090;-84
2023/08/05 07:31:16;;;;;;;23.13;10.68;;;;;;;23.03;71.42;98305.22;5081401;28;20039;-83
2023/08/05 07:34:01;;;;;;;23.35;10.95;;;;;;;23.11;71.30;98303.75;5078077;28;20051;-83
2023/08/05 07:36:44;;;;;;;25.02;12.05;;;;;;;22.87;71.65;98287.84;5080669;28;20031;-80
2023/08/05 07:39:33;;;;;;;20.27;10.13;;;;;;;22.90;71.22;98296.06;5087181;28;20038;-80
2023/08/05 07:42:20;;;;;;;17.15;9.90;;;;;;;22.88;71.01;98279.53;5080891;28;20106;-82
2023/08/05 07:45:08;;;;;;;19.98;9.70;;;;;;;22.57;70.70;98277.38;5081836;28;20042;-79
2023/08/05 07:47:53;;;;;;;20.05;8.80;;;;;;;22.40;70.63;98280.56;5082037;28;20547;-80
2023/08/05 07:50:37;;;;;;;17.48;9.30;;;;;;;22.48;71.34;98279.13;5080135;28;20043;-78
2023/08/05 07:53:23;;;;;;;17.65;8.90;;;;;;;22.58;70.89;98278.16;5077319;28;20039;-76
2023/08/05 07:56:12;;;;;;;19.70;9.98;;;;;;;22.60;71.17;98276.00;5076925;28;20096;-77
2023/08/05 07:58:56;;;;;;;17.35;9.20;;;;;;;22.52;70.92;98266.75;5078105;28;20093;-77
2023/08/05 08:01:42;;;;;;;15.57;8.82;;;;;;;22.52;71.10;98266.75;5079092;28;20043;-78
2023/08/05 08:04:27;;;;;;;16.90;8.95;;;;;;;22.62;71.04;98263.94;5075644;28;20079;-78
2023/08/05 08:07:11;;;;;;;18.27;10.00;;;;;;;22.27;71.67;98252.69;5078280;28;20133;-78
2023/08/05 08:09:55;;;;;;;17.63;8.50;;;;;;;22.35;71.50;98252.00;5073337;28;20082;-77
2023/08/05 08:12:39;;;;;;;16.48;9.40;;;;;;;22.16;72.05;98251.25;5077259;28;20175;-77
2023/08/05 08:15:24;;;;;;;17.65;8.52;;;;;;;22.48;71.50;98249.72;5079073;28;20093;-78
2023/08/05 08:18:07;;;;;;;;;;;;;;;22.19;72.28;98253.31;5079894;28;20131;-78
2023/08/05 08:20:52;;;;;;;17.42;8.25;;;;;;;21.72;72.86;98239.88;5077035;28;20378;-78
2023/08/05 08:23:36;;;;;;;20.85;9.68;;;;;;;21.87;73.21;98236.19;5079484;28;20062;-77
2023/08/05 08:26:20;;;;;;;14.10;8.32;;;;;;;22.09;72.55;98227.56;5079338;28;20089;-77
2023/08/05 08:29:04;;;;;;;14.60;8.35;;;;;;;22.08;71.96;98231.31;5078203;28;20052;-77
2023/08/05 08:31:48;;;;;;;14.68;7.63;;;;;;;22.22;72.07;98234.06;5077195;28;20086;-77
2023/08/05 08:34:32;;;;;;;13.75;8.10;;;;;;;21.95;72.50;98238.19;5077233;28;20047;-77
2023/08/05 08:37:16;;;;;;;11.52;7.28;;;;;;;22.00;72.67;98230.09;5075257;28;20047;-77
2023/08/05 08:40:02;;;;;;;11.70;7.38;;;;;;;22.20;72.54;98225.50;5076184;28;20063;-77
2023/08/05 08:42:49;;;;;;;13.48;7.30;;;;;;;21.93;72.67;98225.13;5078354;28;20059;-77
2023/08/05 08:45:34;;;;;;;11.38;7.03;;;;;;;22.12;72.62;98216.31;5070697;28;20106;-76
2023/08/05 08:48:19;;;;;;;12.57;6.75;;;;;;;21.83;73.10;98204.69;5074092;28;20170;-76
2023/08/05 08:51:03;;;;;;;12.82;7.38;;;;;;;21.72;73.79;98202.47;5077220;28;20042;-77
2023/08/05 08:53:48;;;;;;;12.68;7.05;;;;;;;21.80;73.97;98210.59;5068359;28;20369;-78
2023/08/05 08:56:33;;;;;;;16.13;7.22;;;;;;;21.48;74.34;98212.09;5078649;28;20043;-77
2023/08/05 08:59:17;;;;;;;15.65;7.72;;;;;;;21.42;73.87;98207.91;5072879;28;20070;-77
2023/08/05 09:02:06;;;;;;;12.43;7.35;;;;;;;21.38;74.34;98210.34;5076096;28;20116;-76
2023/08/05 09:04:54;;;;;;;12.10;7.47;;;;;;;21.54;73.38;98213.59;5073169;28;20098;-76
2023/08/05 09:07:38;;;;;;;10.98;6.55;;;;;;;21.19;73.91;98207.63;5073705;28;20128;-76
2023/08/05 09:10:24;;;;;;;12.38;6.97;;;;;;;21.20;73.40;98198.53;5075441;28;20066;-75
2023/08/05 09:13:08;;;;;;;10.52;6.18;;;;;;;21.69;73.04;98206.50;5076799;28;20039;-76
2023/08/05 09:15:53;;;;;;;7.90;5.68;;;;;;;22.17;72.67;98200.19;5076468;28;20129;-76
2023/08/05 09:18:43;;;;;;;8.68;6.00;;;;;;;21.99;71.69;98196.44;5071919;28;20042;-76
2023/08/05 09:21:28;;;;;;;7.82;5.85;;;;;;;22.20;72.06;98191.56;5079580;28;20090;-75
2023/08/05 09:24:21;;;;;;;9.32;5.95;;;;;;;21.79;72.36;98194.88;5073179;28;20466;-75
2023/08/05 09:27:05;;;;;;;8.52;5.35;;;;;;;22.02;71.69;98193.22;5069566;28;20458;-75
2023/08/05 09:29:49;;;;;;;11.85;6.70;;;;;;;22.53;71.04;98188.13;5077551;28;20122;-75
2023/08/05 09:32:33;;;;;;;8.50;5.80;;;;;;;22.67;71.18;98188.94;5072406;28;20196;-75
2023/08/05 09:35:18;;;;;;;8.27;6.28;;;;;;;22.40;71.17;98181.63;5077819;28;20139;-75
2023/08/05 09:38:03;;;;;;;9.13;6.22;;;;;;;22.95;71.41;98178.25;5070625;28;20050;-76
2023/08/05 09:40:52;;;;;;;11.60;6.47;;;;;;;22.71;70.72;98180.31;5075977;28;20098;-75
2023/08/05 09:43:43;;;;;;;11.57;6.50;;;;;;;22.97;71.23;98159.22;5072321;28;20118;-77
2023/08/05 09:46:40;;;;;;;11.73;6.53;;;;;;;22.66;70.76;98171.31;5077758;28;20048;-75
2023/08/05 09:49:25;;;;;;;12.70;7.68;;;;;;;22.80;71.62;98165.97;5079387;28;20048;-76
2023/08/05 09:52:12;;;;;;;11.52;6.85;;;;;;;23.03;70.83;98163.38;5075597;28;20074;-75
2023/08/05 09:55:03;;;;;;;10.80;6.45;;;;;;;22.74;70.91;98167.16;5078868;28;20169;-75
2023/08/05 09:57:47;;;;;;;9.35;6.05;;;;;;;23.16;70.13;98155.63;5076055;28;20046;-76
2023/08/05 10:00:33;;;;;;;8.00;5.78;;;;;;;23.20;70.35;98157.41;5081658;28;20036;-75
2023/08/05 10:03:19;;;;;;;10.63;6.20;;;;;;;22.54;69.93;98154.94;5071328;28;20551;-76
2023/08/05 10:06:06;;;;;;;11.15;5.45;;;;;;;22.94;69.94;98157.16;5073225;28;20044;-75
2023/08/05 10:08:51;;;;;;;8.80;5.78;;;;;;;23.40;69.64;98150.06;5078205;28;20101;-76
2023/08/05 10:11:37;;;;;;;10.70;6.32;;;;;;;23.64;69.08;98154.38;5074067;28;20208;-77
2023/08/05 10:14:21;;;;;;;8.13;6.07;;;;;;;23.84;68.39;98150.41;5069785;28;20067;-76
2023/08/05 10:17:06;;;;;;;10.73;6.50;;;;;;;23.85;68.37;98148.53;5076827;28;20044;-77
2023/08/05 10:19:51;;;;;;;9.63;6.00;;;;;;;23.74;67.98;98139.94;5076829;28;20128;-77
2023/08/05 10:22:37;;;;;;;9.02;6.50;;;;;;;23.86;68.84;98139.41;5078578;28;20555;-75
2023/08/05 10:25:37;;;;;;;9.02;6.13;;;;;;;23.64;69.10;98144.44;5075638;28;20039;-75
2023/08/05 10:28:24;;;;;;;10.45;6.70;;;;;;;24.38;68.32;98139.75;5068833;28;20409;-75
2023/08/05 10:31:27;;;;;;;10.93;6.20;;;;;;;24.60;68.03;98140.78;5081605;28;20047;-77
2023/08/05 10:34:17;;;;;;;7.07;5.25;;;;;;;24.80;66.39;98128.69;5073264;28;20760;-76
2023/08/05 10:37:05;;;;;;;8.00;5.63;;;;;;;25.04;65.85;98132.09;5071771;28;20394;-75
2023/08/05 10:40:00;;;;;;;7.22;5.75;;;;;;;23.70;67.07;98131.72;5077293;28;20038;-77
2023/08/05 10:42:46;;;;;;;10.85;6.20;;;;;;;24.08;68.17;98130.59;5079584;28;20116;-77
2023/08/05 10:45:33;;;;;;;12.40;6.20;;;;;;;25.02;66.92;98120.88;5078503;28;20108;-78
2023/08/05 10:48:17;;;;;;;9.07;5.93;;;;;;;25.17;65.60;98125.00;5080307;28;20051;-79
2023/08/05 10:51:11;;;;;;;12.57;6.50;;;;;;;25.72;63.36;98126.28;5079963;28;20044;-77
2023/08/05 10:53:55;;;;;;;7.40;5.28;;;;;;;25.83;64.50;98126.75;5082871;28;20093;-77
2023/08/05 10:56:39;;;;;;;8.18;5.68;;;;;;;24.90;65.22;98124.94;5077879;28;20122;-77
2023/08/05 10:59:24;;;;;;;9.20;5.75;;;;;;;25.09;64.66;98123.88;5078126;28;20039;-78
2023/08/05 11:02:22;;;;;;;8.10;5.18;;;;;;;24.82;65.33;98125.72;5077181;28;20124;-77
2023/08/05 11:05:07;;;;;;;6.95;4.97;;;;;;;25.34;64.45;98116.97;5080324;28;20063;-78
2023/08/05 11:07:54;;;;;;;8.60;5.97;;;;;;;25.01;65.27;98116.59;5079880;28;20067;-79
2023/08/05 11:10:38;;;;;;;8.82;5.70;;;;;;;25.07;66.17;98121.53;5080891;28;20052;-78
2023/08/05 11:13:23;;;;;;;10.40;5.82;;;;;;;25.27;63.96;98123.91;5075710;28;20042;-78
2023/08/05 11:16:11;;;;;;;6.55;5.18;;;;;;;24.94;63.67;98125.13;5084191;28;20045;-78
2023/08/05 11:18:58;;;;;;;9.07;5.78;;;;;;;26.09;63.92;98126.69;5078653;28;20128;-78
2023/08/05 11:21:46;;;;;;;9.07;5.80;;;;;;;25.91;63.04;98122.47;5080754;28;20051;-78
2023/08/05 11:24:31;;;;;;;7.93;5.38;;;;;;;25.75;62.05;98123.00;5082148;28;20059;-77
2023/08/05 11:27:14;;;;;;;8.63;6.15;;;;;;;25.44;64.10;98123.91;5073669;28;20050;-77
2023/08/05 11:29:58;;;;;;;7.95;6.07;;;;;;;25.39;63.97;98118.72;5079097;28;20509;-77
2023/08/05 11:32:56;;;;;;;8.45;5.97;;;;;;;25.28;63.33;98109.38;5076409;28;20394;-77
2023/08/05 11:35:48;;;;;;;9.65;6.00;;;;;;;26.18;64.38;98117.88;5078320;28;20047;-77
2023/08/05 11:38:32;;;;;;;8.07;5.65;;;;;;;25.40;63.74;98106.84;5076853;28;21799;-77
2023/08/05 11:41:17;;;;;;;7.65;5.82;;;;;;;24.96;64.09;98106.81;5077458;28;20035;-77
2023/08/05 11:44:01;;;;;;;9.50;6.20;;;;;;;23.41;66.26;98119.53;5075742;28;20055;-77
2023/08/05 11:46:46;;;;;;;8.65;6.30;;;;;;;23.65;67.64;98121.13;5071423;28;20074;-77
2023/08/05 11:49:31;;;;;;;8.80;6.90;;;;;;;23.57;66.75;98121.84;5071138;28;20066;-76
2023/08/05 11:52:15;;;;;;;9.93;6.93;;;;;;;23.50;67.98;98116.91;5082794;28;20083;-77
2023/08/05 11:55:00;;;;;;;8.25;6.38;;;;;;;23.02;68.37;98118.19;5077316;28;20093;-76
2023/08/05 11:57:44;;;;;;;10.02;6.20;;;;;;;24.28;67.36;98123.91;5073515;28;20423;-77
2023/08/05 12:00:29;;;;;;;10.52;6.68;;;;;;;24.96;65.84;98112.16;5077505;28;20418;-76
2023/08/05 12:03:14;;;;;;;8.88;6.20;;;;;;;24.70;65.68;98112.88;5074388;28;20043;-76
2023/08/05 12:06:03;;;;;;;9.88;6.20;;;;;;;24.38;64.61;98117.47;5077356;28;20058;-76
2023/08/05 12:08:47;;;;;;;10.82;6.60;;;;;;;24.28;64.90;98120.44;5066233;28;20059;-77
2023/08/05 12:11:44;;;;;;;15.82;7.07;;;;;;;24.68;65.32;98126.59;5074331;28;20521;-77
2023/08/05 12:14:28;;;;;;;8.77;6.72;;;;;;;25.29;64.17;98122.50;5079545;28;20047;-77
2023/08/05 12:17:13;;;;;;;8.82;6.25;;;;;;;25.53;63.09;98123.94;5074272;28;20039;-78
2023/08/05 12:19:58;;;;;;;8.13;6.07;;;;;;;25.72;62.39;98128.97;5084276;28;20460;-78
2023/08/05 12:22:43;;;;;;;9.18;6.13;;;;;;;26.27;61.85;98132.06;5081645;28;20092;-76
2023/08/05 12:25:29;;;;;;;9.05;6.07;;;;;;;26.15;61.21;98134.63;5079864;28;20112;-76
2023/08/05 12:28:13;;;;;;;9.60;5.90;;;;;;;24.98;61.74;98130.66;5073944;28;20047;-75
2023/08/05 12:30:57;;;;;;;8.55;5.95;;;;;;;25.04;60.94;98130.19;5073474;28;20063;-76
2023/08/05 12:33:41;;;;;;;7.88;5.22;;;;;;;26.15;61.51;98129.25;5068770;28;20047;-77
2023/08/05 12:36:25;;;;;;;7.05;5.05;;;;;;;27.35;60.25;98134.72;5070628;28;20046;-78
2023/08/05 12:39:09;;;;;;;8.95;6.32;;;;;;;27.17;59.26;98128.66;5071064;28;20105;-76
2023/08/05 12:41:53;;;;;;;7.07;5.40;;;;;;;26.95;59.39;98130.53;5076787;28;20500;-77
2023/08/05 12:44:37;;;;;;;8.38;5.82;;;;;;;26.28;60.21;98130.97;5071281;28;20131;-77
2023/08/05 12:47:21;;;;;;;6.00;4.88;;;;;;;26.31;58.79;98129.53;5074422;28;20047;-77
2023/08/05 12:50:07;;;;;;;6.57;4.80;;;;;;;26.65;59.47;98142.06;5074180;28;20055;-76